sensor_id;sensor_type;location;lat;lon;timestamp;P1;durP1;ratioP1;P2;durP2;ratioP2
16193;SDS011;8204;53.582;10.080;2022-07-22T00:02:01;28.43;;;26.23;;
16193;SDS011;8204;53.582;10.080;2022-07-22T00:04:28;28.43;;;26.07;;
16193;SDS011;8204;53.582;10.080;2022-07-22T00:06:55;31.60;;;28.97;;
16193;SDS011;8204;53.582;10.080;2022-07-22T00:09:23;28.30;;;26.13;;
16193;SDS011;8204;53.582;10.080;2022-07-22T00:11:50;27.20;;;25.00;;
16193;SDS011;8204;53.582;10.080;2022-07-22T00:14:17;28.03;;;25.83;;
16193;SDS011;8204;53.582;10.080;2022-07-22T00:16:43;27.90;;;25.70;;
16193;SDS011;8204;53.582;10.080;2022-07-22T00:19:10;28.27;;;25.77;;
16193;SDS011;8204;53.582;10.080;2022-07-22T00:21:36;26.83;;;24.63;;
16193;SDS011;8204;53.582;10.080;2022-07-22T00:24:03;27.33;;;24.93;;
16193;SDS011;8204;53.582;10.080;2022-07-22T00:26:32;26.40;;;24.20;;
16193;SDS011;8204;53.582;10.080;2022-07-22T00:28:58;26.67;;;24.23;;
16193;SDS011;8204;53.582;10.080;2022-07-22T00:31:25;25.97;;;23.93;;
16193;SDS011;8204;53.582;10.080;2022-07-22T00:33:51;26.10;;;23.87;;
16193;SDS011;8204;53.582;10.080;2022-07-22T00:36:18;23.63;;;21.63;;
16193;SDS011;8204;53.582;10.080;2022-07-22T00:38:45;25.47;;;23.40;;
16193;SDS011;8204;53.582;10.080;2022-07-22T00:41:11;26.03;;;23.33;;
16193;SDS011;8204;53.582;10.080;2022-07-22T00:43:49;26.60;;;24.13;;
16193;SDS011;8204;53.582;10.080;2022-07-22T00:46:16;28.67;;;26.00;;
16193;SDS011;8204;53.582;10.080;2022-07-22T00:48:43;26.23;;;23.53;;
16193;SDS011;8204;53.582;10.080;2022-07-22T00:51:09;27.27;;;24.70;;
16193;SDS011;8204;53.582;10.080;2022-07-22T00:53:36;26.30;;;23.70;;
16193;SDS011;8204;53.582;10.080;2022-07-22T00:56:03;25.13;;;22.53;;
16193;SDS011;8204;53.582;10.080;2022-07-22T00:58:30;22.67;;;20.50;;
16193;SDS011;8204;53.582;10.080;2022-07-22T01:00:58;22.37;;;19.97;;
16193;SDS011;8204;53.582;10.080;2022-07-22T01:03:24;21.60;;;18.63;;
16193;SDS011;8204;53.582;10.080;2022-07-22T01:05:51;22.60;;;19.97;;
16193;SDS011;8204;53.582;10.080;2022-07-22T01:08:18;17.37;;;15.23;;
16193;SDS011;8204;53.582;10.080;2022-07-22T01:10:44;15.47;;;14.07;;
16193;SDS011;8204;53.582;10.080;2022-07-22T01:13:11;12.70;;;10.60;;
16193;SDS011;8204;53.582;10.080;2022-07-22T01:15:37;10.63;;;9.60;;
16193;SDS011;8204;53.582;10.080;2022-07-22T01:18:05;9.17;;;8.33;;
16193;SDS011;8204;53.582;10.080;2022-07-22T01:20:34;8.27;;;7.57;;
16193;SDS011;8204;53.582;10.080;2022-07-22T01:23:00;7.60;;;6.93;;
16193;SDS011;8204;53.582;10.080;2022-07-22T01:25:27;7.97;;;7.23;;
16193;SDS011;8204;53.582;10.080;2022-07-22T01:27:53;5.57;;;5.17;;
16193;SDS011;8204;53.582;10.080;2022-07-22T01:30:20;6.37;;;4.57;;
16193;SDS011;8204;53.582;10.080;2022-07-22T01:32:47;3.53;;;3.33;;
16193;SDS011;8204;53.582;10.080;2022-07-22T01:35:13;3.40;;;3.10;;
16193;SDS011;8204;53.582;10.080;2022-07-22T01:37:41;4.33;;;4.00;;
16193;SDS011;8204;53.582;10.080;2022-07-22T01:40:08;4.80;;;4.40;;
16193;SDS011;8204;53.582;10.080;2022-07-22T01:42:35;4.60;;;4.20;;
16193;SDS011;8204;53.582;10.080;2022-07-22T01:45:02;6.27;;;4.47;;
16193;SDS011;8204;53.582;10.080;2022-07-22T01:47:29;5.37;;;4.40;;
16193;SDS011;8204;53.582;10.080;2022-07-22T01:49:55;4.93;;;4.37;;
16193;SDS011;8204;53.582;10.080;2022-07-22T01:52:22;4.50;;;4.10;;
16193;SDS011;8204;53.582;10.080;2022-07-22T01:54:50;5.03;;;4.33;;
16193;SDS011;8204;53.582;10.080;2022-07-22T01:57:16;4.27;;;3.97;;
16193;SDS011;8204;53.582;10.080;2022-07-22T01:59:43;5.10;;;4.37;;
16193;SDS011;8204;53.582;10.080;2022-07-22T02:02:09;7.60;;;5.07;;
16193;SDS011;8204;53.582;10.080;2022-07-22T02:04:36;7.70;;;6.03;;
16193;SDS011;8204;53.582;10.080;2022-07-22T02:07:02;8.73;;;7.10;;
16193;SDS011;8204;53.582;10.080;2022-07-22T02:09:29;8.10;;;6.40;;
16193;SDS011;8204;53.582;10.080;2022-07-22T02:11:57;11.27;;;9.23;;
16193;SDS011;8204;53.582;10.080;2022-07-22T02:14:23;12.27;;;10.00;;
16193;SDS011;8204;53.582;10.080;2022-07-22T02:16:50;16.93;;;11.13;;
16193;SDS011;8204;53.582;10.080;2022-07-22T02:19:17;13.00;;;10.10;;
16193;SDS011;8204;53.582;10.080;2022-07-22T02:21:43;11.17;;;9.50;;
16193;SDS011;8204;53.582;10.080;2022-07-22T02:24:09;11.43;;;10.33;;
16193;SDS011;8204;53.582;10.080;2022-07-22T02:26:36;16.20;;;10.37;;
16193;SDS011;8204;53.582;10.080;2022-07-22T02:29:04;12.47;;;8.60;;
16193;SDS011;8204;53.582;10.080;2022-07-22T02:31:31;14.67;;;8.67;;
16193;SDS011;8204;53.582;10.080;2022-07-22T02:33:57;16.30;;;8.73;;
16193;SDS011;8204;53.582;10.080;2022-07-22T02:36:24;11.93;;;8.80;;
16193;SDS011;8204;53.582;10.080;2022-07-22T02:38:51;12.83;;;7.33;;
16193;SDS011;8204;53.582;10.080;2022-07-22T02:41:17;7.53;;;6.50;;
16193;SDS011;8204;53.582;10.080;2022-07-22T02:43:43;11.43;;;6.77;;
16193;SDS011;8204;53.582;10.080;2022-07-22T02:46:11;6.97;;;5.97;;
16193;SDS011;8204;53.582;10.080;2022-07-22T02:48:38;8.57;;;5.97;;
16193;SDS011;8204;53.582;10.080;2022-07-22T02:51:04;6.67;;;5.57;;
16193;SDS011;8204;53.582;10.080;2022-07-22T02:53:31;15.07;;;5.37;;
16193;SDS011;8204;53.582;10.080;2022-07-22T02:55:57;6.93;;;5.57;;
16193;SDS011;8204;53.582;10.080;2022-07-22T02:58:24;14.67;;;6.03;;
16193;SDS011;8204;53.582;10.080;2022-07-22T03:00:50;11.43;;;5.50;;
16193;SDS011;8204;53.582;10.080;2022-07-22T03:03:18;9.60;;;5.47;;
16193;SDS011;8204;53.582;10.080;2022-07-22T03:05:45;6.73;;;4.30;;
16193;SDS011;8204;53.582;10.080;2022-07-22T03:08:11;13.20;;;6.60;;
16193;SDS011;8204;53.582;10.080;2022-07-22T03:10:37;9.13;;;4.83;;
16193;SDS011;8204;53.582;10.080;2022-07-22T03:13:05;8.47;;;5.03;;
16193;SDS011;8204;53.582;10.080;2022-07-22T03:15:31;9.33;;;4.43;;
16193;SDS011;8204;53.582;10.080;2022-07-22T03:17:58;11.10;;;5.57;;
16193;SDS011;8204;53.582;10.080;2022-07-22T03:20:25;10.73;;;5.43;;
16193;SDS011;8204;53.582;10.080;2022-07-22T03:22:52;9.90;;;4.10;;
16193;SDS011;8204;53.582;10.080;2022-07-22T03:25:19;12.73;;;4.30;;
16193;SDS011;8204;53.582;10.080;2022-07-22T03:27:45;8.60;;;4.17;;
16193;SDS011;8204;53.582;10.080;2022-07-22T03:30:12;9.63;;;4.60;;
16193;SDS011;8204;53.582;10.080;2022-07-22T03:32:38;11.60;;;5.37;;
16193;SDS011;8204;53.582;10.080;2022-07-22T03:35:09;8.97;;;4.07;;
16193;SDS011;8204;53.582;10.080;2022-07-22T03:37:37;9.40;;;4.67;;
16193;SDS011;8204;53.582;10.080;2022-07-22T03:40:04;7.23;;;4.17;;
16193;SDS011;8204;53.582;10.080;2022-07-22T03:42:32;7.37;;;4.20;;
16193;SDS011;8204;53.582;10.080;2022-07-22T03:44:58;9.10;;;4.67;;
16193;SDS011;8204;53.582;10.080;2022-07-22T03:47:25;11.70;;;4.50;;
16193;SDS011;8204;53.582;10.080;2022-07-22T03:49:51;6.57;;;3.60;;
16193;SDS011;8204;53.582;10.080;2022-07-22T03:52:18;13.03;;;4.03;;
16193;SDS011;8204;53.582;10.080;2022-07-22T03:54:46;9.67;;;3.73;;
16193;SDS011;8204;53.582;10.080;2022-07-22T03:57:12;5.23;;;3.60;;
16193;SDS011;8204;53.582;10.080;2022-07-22T03:59:39;6.97;;;3.43;;
16193;SDS011;8204;53.582;10.080;2022-07-22T04:02:05;8.37;;;4.37;;
16193;SDS011;8204;53.582;10.080;2022-07-22T04:04:31;4.30;;;3.90;;
16193;SDS011;8204;53.582;10.080;2022-07-22T04:06:58;7.87;;;3.40;;
16193;SDS011;8204;53.582;10.080;2022-07-22T04:09:24;9.23;;;3.37;;
16193;SDS011;8204;53.582;10.080;2022-07-22T04:11:52;6.40;;;3.10;;
16193;SDS011;8204;53.582;10.080;2022-07-22T04:14:19;7.80;;;4.10;;
16193;SDS011;8204;53.582;10.080;2022-07-22T04:16:45;6.47;;;3.47;;
16193;SDS011;8204;53.582;10.080;2022-07-22T04:19:13;8.93;;;4.10;;
16193;SDS011;8204;53.582;10.080;2022-07-22T04:21:40;3.50;;;3.20;;
16193;SDS011;8204;53.582;10.080;2022-07-22T04:24:07;8.77;;;4.10;;
16193;SDS011;8204;53.582;10.080;2022-07-22T04:26:34;4.17;;;3.60;;
16193;SDS011;8204;53.582;10.080;2022-07-22T04:29:02;10.20;;;4.00;;
16193;SDS011;8204;53.582;10.080;2022-07-22T04:31:29;7.83;;;4.07;;
16193;SDS011;8204;53.582;10.080;2022-07-22T04:33:56;6.67;;;3.80;;
16193;SDS011;8204;53.582;10.080;2022-07-22T04:36:23;7.20;;;4.33;;
16193;SDS011;8204;53.582;10.080;2022-07-22T04:38:50;10.43;;;4.77;;
16193;SDS011;8204;53.582;10.080;2022-07-22T04:41:16;9.70;;;5.40;;
16193;SDS011;8204;53.582;10.080;2022-07-22T04:43:43;8.23;;;4.80;;
16193;SDS011;8204;53.582;10.080;2022-07-22T04:46:11;6.93;;;3.87;;
16193;SDS011;8204;53.582;10.080;2022-07-22T04:48:37;14.77;;;5.03;;
16193;SDS011;8204;53.582;10.080;2022-07-22T04:51:04;8.90;;;3.87;;
16193;SDS011;8204;53.582;10.080;2022-07-22T04:53:30;6.50;;;4.23;;
16193;SDS011;8204;53.582;10.080;2022-07-22T04:55:57;7.87;;;4.43;;
16193;SDS011;8204;53.582;10.080;2022-07-22T04:58:23;9.00;;;3.83;;
16193;SDS011;8204;53.582;10.080;2022-07-22T05:00:50;5.03;;;3.70;;
16193;SDS011;8204;53.582;10.080;2022-07-22T05:03:17;7.20;;;3.53;;
16193;SDS011;8204;53.582;10.080;2022-07-22T05:05:44;8.93;;;3.43;;
16193;SDS011;8204;53.582;10.080;2022-07-22T05:08:11;6.90;;;3.57;;
16193;SDS011;8204;53.582;10.080;2022-07-22T05:10:38;3.10;;;2.80;;
16193;SDS011;8204;53.582;10.080;2022-07-22T05:13:04;6.63;;;3.57;;
16193;SDS011;8204;53.582;10.080;2022-07-22T05:15:31;5.93;;;3.43;;
16193;SDS011;8204;53.582;10.080;2022-07-22T05:17:57;3.67;;;3.37;;
16193;SDS011;8204;53.582;10.080;2022-07-22T05:20:25;4.53;;;3.00;;
16193;SDS011;8204;53.582;10.080;2022-07-22T05:22:52;8.00;;;4.83;;
16193;SDS011;8204;53.582;10.080;2022-07-22T05:25:18;8.67;;;3.97;;
16193;SDS011;8204;53.582;10.080;2022-07-22T05:27:51;5.30;;;4.23;;
16193;SDS011;8204;53.582;10.080;2022-07-22T05:30:19;6.90;;;5.00;;
16193;SDS011;8204;53.582;10.080;2022-07-22T05:32:45;5.30;;;4.37;;
16193;SDS011;8204;53.582;10.080;2022-07-22T05:35:12;5.33;;;4.30;;
16193;SDS011;8204;53.582;10.080;2022-07-22T05:37:40;8.70;;;5.40;;
16193;SDS011;8204;53.582;10.080;2022-07-22T05:40:07;7.43;;;5.00;;
16193;SDS011;8204;53.582;10.080;2022-07-22T05:42:34;10.23;;;5.23;;
16193;SDS011;8204;53.582;10.080;2022-07-22T05:45:01;10.83;;;5.47;;
16193;SDS011;8204;53.582;10.080;2022-07-22T05:47:27;11.37;;;5.20;;
16193;SDS011;8204;53.582;10.080;2022-07-22T05:49:53;7.03;;;4.73;;
16193;SDS011;8204;53.582;10.080;2022-07-22T05:52:20;11.37;;;4.93;;
16193;SDS011;8204;53.582;10.080;2022-07-22T05:54:48;8.90;;;5.33;;
16193;SDS011;8204;53.582;10.080;2022-07-22T05:57:14;8.77;;;4.30;;
16193;SDS011;8204;53.582;10.080;2022-07-22T05:59:41;9.23;;;5.17;;
16193;SDS011;8204;53.582;10.080;2022-07-22T06:02:08;11.50;;;5.37;;
16193;SDS011;8204;53.582;10.080;2022-07-22T06:04:34;5.80;;;5.07;;
16193;SDS011;8204;53.582;10.080;2022-07-22T06:07:01;7.87;;;5.10;;
16193;SDS011;8204;53.582;10.080;2022-07-22T06:09:27;10.90;;;5.80;;
16193;SDS011;8204;53.582;10.080;2022-07-22T06:11:55;9.87;;;4.83;;
16193;SDS011;8204;53.582;10.080;2022-07-22T06:14:21;9.57;;;5.40;;
16193;SDS011;8204;53.582;10.080;2022-07-22T06:16:48;10.33;;;4.80;;
16193;SDS011;8204;53.582;10.080;2022-07-22T06:19:14;14.03;;;5.87;;
16193;SDS011;8204;53.582;10.080;2022-07-22T06:21:41;11.97;;;6.37;;
16193;SDS011;8204;53.582;10.080;2022-07-22T06:24:07;13.03;;;6.10;;
16193;SDS011;8204;53.582;10.080;2022-07-22T06:26:34;7.47;;;5.13;;
16193;SDS011;8204;53.582;10.080;2022-07-22T06:29:02;9.53;;;4.43;;
16193;SDS011;8204;53.582;10.080;2022-07-22T06:31:28;13.10;;;5.53;;
16193;SDS011;8204;53.582;10.080;2022-07-22T06:33:55;14.17;;;6.37;;
16193;SDS011;8204;53.582;10.080;2022-07-22T06:36:21;10.20;;;5.17;;
16193;SDS011;8204;53.582;10.080;2022-07-22T06:38:48;13.40;;;5.73;;
16193;SDS011;8204;53.582;10.080;2022-07-22T06:41:14;8.53;;;5.00;;
16193;SDS011;8204;53.582;10.080;2022-07-22T06:43:44;11.07;;;5.40;;
16193;SDS011;8204;53.582;10.080;2022-07-22T06:46:12;18.57;;;6.30;;
16193;SDS011;8204;53.582;10.080;2022-07-22T06:48:38;8.93;;;6.23;;
16193;SDS011;8204;53.582;10.080;2022-07-22T06:51:05;14.23;;;5.77;;
16193;SDS011;8204;53.582;10.080;2022-07-22T06:53:31;13.80;;;6.87;;
16193;SDS011;8204;53.582;10.080;2022-07-22T06:55:58;8.90;;;5.70;;
16193;SDS011;8204;53.582;10.080;2022-07-22T06:58:24;16.97;;;5.90;;
16193;SDS011;8204;53.582;10.080;2022-07-22T07:00:51;10.33;;;7.10;;
16193;SDS011;8204;53.582;10.080;2022-07-22T07:03:19;11.80;;;6.83;;
16193;SDS011;8204;53.582;10.080;2022-07-22T07:05:47;11.67;;;5.77;;
16193;SDS011;8204;53.582;10.080;2022-07-22T07:08:13;13.03;;;5.33;;
16193;SDS011;8204;53.582;10.080;2022-07-22T07:10:39;11.47;;;6.37;;
16193;SDS011;8204;53.582;10.080;2022-07-22T07:13:06;15.80;;;6.73;;
16193;SDS011;8204;53.582;10.080;2022-07-22T07:15:33;12.43;;;5.97;;
16193;SDS011;8204;53.582;10.080;2022-07-22T07:17:59;14.07;;;6.13;;
16193;SDS011;8204;53.582;10.080;2022-07-22T07:20:27;9.93;;;5.23;;
16193;SDS011;8204;53.582;10.080;2022-07-22T07:22:53;19.73;;;7.23;;
16193;SDS011;8204;53.582;10.080;2022-07-22T07:25:21;14.97;;;6.53;;
16193;SDS011;8204;53.582;10.080;2022-07-22T07:27:47;12.83;;;5.77;;
16193;SDS011;8204;53.582;10.080;2022-07-22T07:30:14;11.17;;;5.83;;
16193;SDS011;8204;53.582;10.080;2022-07-22T07:32:40;9.33;;;6.00;;
16193;SDS011;8204;53.582;10.080;2022-07-22T07:35:07;9.93;;;5.87;;
16193;SDS011;8204;53.582;10.080;2022-07-22T07:37:35;11.00;;;5.67;;
16193;SDS011;8204;53.582;10.080;2022-07-22T07:40:02;12.53;;;5.60;;
16193;SDS011;8204;53.582;10.080;2022-07-22T07:42:29;12.13;;;5.53;;
16193;SDS011;8204;53.582;10.080;2022-07-22T07:44:56;15.80;;;6.43;;
16193;SDS011;8204;53.582;10.080;2022-07-22T07:47:22;7.97;;;5.50;;
16193;SDS011;8204;53.582;10.080;2022-07-22T07:49:49;16.73;;;6.23;;
16193;SDS011;8204;53.582;10.080;2022-07-22T07:52:15;11.20;;;5.60;;
16193;SDS011;8204;53.582;10.080;2022-07-22T07:54:44;15.53;;;6.40;;
16193;SDS011;8204;53.582;10.080;2022-07-22T07:57:11;10.57;;;5.57;;
16193;SDS011;8204;53.582;10.080;2022-07-22T07:59:38;13.97;;;5.57;;
16193;SDS011;8204;53.582;10.080;2022-07-22T08:02:05;9.10;;;5.33;;
16193;SDS011;8204;53.582;10.080;2022-07-22T08:04:32;13.70;;;6.03;;
16193;SDS011;8204;53.582;10.080;2022-07-22T08:07:00;16.80;;;5.30;;
16193;SDS011;8204;53.582;10.080;2022-07-22T08:09:26;9.77;;;5.23;;
16193;SDS011;8204;53.582;10.080;2022-07-22T08:11:54;11.40;;;5.60;;
16193;SDS011;8204;53.582;10.080;2022-07-22T08:14:21;9.30;;;5.00;;
16193;SDS011;8204;53.582;10.080;2022-07-22T08:16:48;14.47;;;5.67;;
16193;SDS011;8204;53.582;10.080;2022-07-22T08:19:14;14.20;;;5.30;;
16193;SDS011;8204;53.582;10.080;2022-07-22T08:21:41;8.37;;;4.87;;
16193;SDS011;8204;53.582;10.080;2022-07-22T08:24:08;9.27;;;5.20;;
16193;SDS011;8204;53.582;10.080;2022-07-22T08:26:35;10.57;;;4.77;;
16193;SDS011;8204;53.582;10.080;2022-07-22T08:29:03;9.00;;;4.80;;
16193;SDS011;8204;53.582;10.080;2022-07-22T08:31:30;11.83;;;4.53;;
16193;SDS011;8204;53.582;10.080;2022-07-22T08:33:59;11.57;;;4.90;;
16193;SDS011;8204;53.582;10.080;2022-07-22T08:36:26;10.70;;;4.87;;
16193;SDS011;8204;53.582;10.080;2022-07-22T08:38:53;8.27;;;4.63;;
16193;SDS011;8204;53.582;10.080;2022-07-22T08:41:19;10.90;;;4.90;;
16193;SDS011;8204;53.582;10.080;2022-07-22T08:43:50;10.10;;;3.93;;
16193;SDS011;8204;53.582;10.080;2022-07-22T08:46:18;7.63;;;3.87;;
16193;SDS011;8204;53.582;10.080;2022-07-22T08:48:45;16.63;;;4.33;;
16193;SDS011;8204;53.582;10.080;2022-07-22T08:51:12;6.87;;;4.20;;
16193;SDS011;8204;53.582;10.080;2022-07-22T08:53:39;11.50;;;4.07;;
16193;SDS011;8204;53.582;10.080;2022-07-22T08:56:06;9.93;;;3.90;;
16193;SDS011;8204;53.582;10.080;2022-07-22T08:58:32;8.17;;;4.33;;
16193;SDS011;8204;53.582;10.080;2022-07-22T09:01:06;11.90;;;3.80;;
16193;SDS011;8204;53.582;10.080;2022-07-22T09:03:37;7.90;;;4.10;;
16193;SDS011;8204;53.582;10.080;2022-07-22T09:06:11;4.23;;;3.83;;
16193;SDS011;8204;53.582;10.080;2022-07-22T09:08:51;6.87;;;4.30;;
16193;SDS011;8204;53.582;10.080;2022-07-22T09:11:20;13.10;;;4.63;;
16193;SDS011;8204;53.582;10.080;2022-07-22T09:13:48;8.67;;;3.67;;
16193;SDS011;8204;53.582;10.080;2022-07-22T09:16:14;9.77;;;3.87;;
16193;SDS011;8204;53.582;10.080;2022-07-22T09:18:46;9.47;;;4.90;;
16193;SDS011;8204;53.582;10.080;2022-07-22T09:21:13;9.13;;;3.50;;
16193;SDS011;8204;53.582;10.080;2022-07-22T09:23:41;11.20;;;3.80;;
16193;SDS011;8204;53.582;10.080;2022-07-22T09:26:08;9.90;;;4.23;;
16193;SDS011;8204;53.582;10.080;2022-07-22T09:28:34;9.73;;;4.13;;
16193;SDS011;8204;53.582;10.080;2022-07-22T09:31:03;9.37;;;3.57;;
16193;SDS011;8204;53.582;10.080;2022-07-22T09:33:30;8.00;;;4.10;;
16193;SDS011;8204;53.582;10.080;2022-07-22T09:36:02;7.20;;;4.13;;
16193;SDS011;8204;53.582;10.080;2022-07-22T09:38:29;7.03;;;3.00;;
16193;SDS011;8204;53.582;10.080;2022-07-22T09:40:59;12.73;;;3.60;;
16193;SDS011;8204;53.582;10.080;2022-07-22T09:43:27;9.47;;;3.30;;
16193;SDS011;8204;53.582;10.080;2022-07-22T09:45:59;4.90;;;3.20;;
16193;SDS011;8204;53.582;10.080;2022-07-22T09:48:25;10.10;;;3.53;;
16193;SDS011;8204;53.582;10.080;2022-07-22T09:50:53;12.90;;;5.90;;
16193;SDS011;8204;53.582;10.080;2022-07-22T09:53:24;9.30;;;3.37;;
16193;SDS011;8204;53.582;10.080;2022-07-22T09:55:53;5.97;;;2.60;;
16193;SDS011;8204;53.582;10.080;2022-07-22T09:58:20;8.63;;;3.80;;
16193;SDS011;8204;53.582;10.080;2022-07-22T10:00:46;6.83;;;3.43;;
16193;SDS011;8204;53.582;10.080;2022-07-22T10:03:17;6.27;;;3.23;;
16193;SDS011;8204;53.582;10.080;2022-07-22T10:05:47;8.13;;;3.30;;
16193;SDS011;8204;53.582;10.080;2022-07-22T10:08:14;11.00;;;4.87;;
16193;SDS011;8204;53.582;10.080;2022-07-22T10:10:42;8.07;;;3.60;;
16193;SDS011;8204;53.582;10.080;2022-07-22T10:13:09;7.77;;;4.40;;
16193;SDS011;8204;53.582;10.080;2022-07-22T10:15:36;13.53;;;4.43;;
16193;SDS011;8204;53.582;10.080;2022-07-22T10:18:04;7.47;;;3.83;;
16193;SDS011;8204;53.582;10.080;2022-07-22T10:20:32;7.67;;;3.63;;
16193;SDS011;8204;53.582;10.080;2022-07-22T10:23:00;7.10;;;3.13;;
16193;SDS011;8204;53.582;10.080;2022-07-22T10:25:27;9.03;;;2.90;;
16193;SDS011;8204;53.582;10.080;2022-07-22T10:27:57;16.07;;;3.90;;
16193;SDS011;8204;53.582;10.080;2022-07-22T10:30:25;4.33;;;2.80;;
16193;SDS011;8204;53.582;10.080;2022-07-22T10:33:01;8.43;;;3.27;;
16193;SDS011;8204;53.582;10.080;2022-07-22T10:35:32;6.00;;;2.60;;
16193;SDS011;8204;53.582;10.080;2022-07-22T10:38:04;6.60;;;3.57;;
16193;SDS011;8204;53.582;10.080;2022-07-22T10:40:45;7.07;;;3.57;;
16193;SDS011;8204;53.582;10.080;2022-07-22T10:43:15;7.83;;;3.53;;
16193;SDS011;8204;53.582;10.080;2022-07-22T10:45:45;7.57;;;4.17;;
16193;SDS011;8204;53.582;10.080;2022-07-22T10:48:13;8.33;;;3.20;;
16193;SDS011;8204;53.582;10.080;2022-07-22T10:50:42;8.87;;;3.63;;
16193;SDS011;8204;53.582;10.080;2022-07-22T10:53:12;5.67;;;2.77;;
16193;SDS011;8204;53.582;10.080;2022-07-22T10:58:40;9.40;;;3.80;;
16193;SDS011;8204;53.582;10.080;2022-07-22T11:01:11;4.93;;;3.03;;
16193;SDS011;8204;53.582;10.080;2022-07-22T11:03:40;8.47;;;4.23;;
16193;SDS011;8204;53.582;10.080;2022-07-22T11:06:12;7.27;;;3.30;;
16193;SDS011;8204;53.582;10.080;2022-07-22T11:08:41;8.63;;;4.00;;
16193;SDS011;8204;53.582;10.080;2022-07-22T11:11:08;6.57;;;3.13;;
16193;SDS011;8204;53.582;10.080;2022-07-22T11:13:35;6.23;;;2.80;;
16193;SDS011;8204;53.582;10.080;2022-07-22T11:16:14;6.33;;;3.20;;
16193;SDS011;8204;53.582;10.080;2022-07-22T11:18:48;7.73;;;3.87;;
16193;SDS011;8204;53.582;10.080;2022-07-22T11:21:18;6.30;;;3.37;;
16193;SDS011;8204;53.582;10.080;2022-07-22T11:23:47;6.13;;;3.00;;
16193;SDS011;8204;53.582;10.080;2022-07-22T11:26:15;5.37;;;2.73;;
16193;SDS011;8204;53.582;10.080;2022-07-22T11:28:44;7.13;;;3.37;;
16193;SDS011;8204;53.582;10.080;2022-07-22T11:31:14;6.73;;;3.30;;
16193;SDS011;8204;53.582;10.080;2022-07-22T11:33:42;6.33;;;3.27;;
16193;SDS011;8204;53.582;10.080;2022-07-22T11:36:09;7.10;;;3.67;;
16193;SDS011;8204;53.582;10.080;2022-07-22T11:38:40;5.10;;;3.10;;
16193;SDS011;8204;53.582;10.080;2022-07-22T11:41:08;6.80;;;3.10;;
16193;SDS011;8204;53.582;10.080;2022-07-22T11:43:39;9.17;;;3.10;;
16193;SDS011;8204;53.582;10.080;2022-07-22T11:46:06;7.17;;;3.03;;
16193;SDS011;8204;53.582;10.080;2022-07-22T11:48:33;5.33;;;3.00;;
16193;SDS011;8204;53.582;10.080;2022-07-22T11:51:00;4.93;;;2.97;;
16193;SDS011;8204;53.582;10.080;2022-07-22T11:53:27;3.80;;;2.80;;
16193;SDS011;8204;53.582;10.080;2022-07-22T11:55:57;7.30;;;3.93;;
16193;SDS011;8204;53.582;10.080;2022-07-22T11:58:37;10.80;;;4.57;;
16193;SDS011;8204;53.582;10.080;2022-07-22T12:01:05;8.20;;;4.00;;
16193;SDS011;8204;53.582;10.080;2022-07-22T12:03:35;10.40;;;2.70;;
16193;SDS011;8204;53.582;10.080;2022-07-22T12:06:03;8.73;;;3.30;;
16193;SDS011;8204;53.582;10.080;2022-07-22T12:08:32;7.13;;;2.90;;
16193;SDS011;8204;53.582;10.080;2022-07-22T12:10:59;9.20;;;2.90;;
16193;SDS011;8204;53.582;10.080;2022-07-22T12:13:29;5.10;;;3.00;;
16193;SDS011;8204;53.582;10.080;2022-07-22T12:15:56;7.57;;;3.27;;
16193;SDS011;8204;53.582;10.080;2022-07-22T12:18:23;7.90;;;3.43;;
16193;SDS011;8204;53.582;10.080;2022-07-22T12:20:53;6.27;;;3.07;;
16193;SDS011;8204;53.582;10.080;2022-07-22T12:23:21;5.80;;;3.13;;
16193;SDS011;8204;53.582;10.080;2022-07-22T12:25:50;4.87;;;3.20;;
16193;SDS011;8204;53.582;10.080;2022-07-22T12:28:18;8.70;;;3.63;;
16193;SDS011;8204;53.582;10.080;2022-07-22T12:30:44;7.10;;;3.77;;
16193;SDS011;8204;53.582;10.080;2022-07-22T12:33:12;9.50;;;2.70;;
16193;SDS011;8204;53.582;10.080;2022-07-22T12:35:40;4.17;;;2.60;;
16193;SDS011;8204;53.582;10.080;2022-07-22T12:38:08;12.17;;;3.57;;
16193;SDS011;8204;53.582;10.080;2022-07-22T12:40:36;5.17;;;2.27;;
16193;SDS011;8204;53.582;10.080;2022-07-22T12:43:03;6.77;;;3.03;;
16193;SDS011;8204;53.582;10.080;2022-07-22T12:45:32;6.17;;;2.90;;
16193;SDS011;8204;53.582;10.080;2022-07-22T12:48:05;7.03;;;3.10;;
16193;SDS011;8204;53.582;10.080;2022-07-22T12:50:34;3.87;;;2.70;;
16193;SDS011;8204;53.582;10.080;2022-07-22T12:53:02;6.47;;;3.13;;
16193;SDS011;8204;53.582;10.080;2022-07-22T12:55:32;4.77;;;2.67;;
16193;SDS011;8204;53.582;10.080;2022-07-22T12:58:00;5.63;;;3.33;;
16193;SDS011;8204;53.582;10.080;2022-07-22T13:00:27;7.47;;;3.77;;
16193;SDS011;8204;53.582;10.080;2022-07-22T13:02:55;5.80;;;2.80;;
16193;SDS011;8204;53.582;10.080;2022-07-22T13:05:23;7.73;;;2.83;;
16193;SDS011;8204;53.582;10.080;2022-07-22T13:07:50;10.17;;;3.23;;
16193;SDS011;8204;53.582;10.080;2022-07-22T13:10:18;4.10;;;2.83;;
16193;SDS011;8204;53.582;10.080;2022-07-22T13:12:46;6.20;;;2.53;;
16193;SDS011;8204;53.582;10.080;2022-07-22T13:15:13;8.33;;;2.73;;
16193;SDS011;8204;53.582;10.080;2022-07-22T13:17:40;4.30;;;2.50;;
16193;SDS011;8204;53.582;10.080;2022-07-22T13:20:08;8.43;;;3.00;;
16193;SDS011;8204;53.582;10.080;2022-07-22T13:22:35;3.70;;;2.63;;
16193;SDS011;8204;53.582;10.080;2022-07-22T13:25:02;3.23;;;2.33;;
16193;SDS011;8204;53.582;10.080;2022-07-22T13:27:29;5.33;;;2.77;;
16193;SDS011;8204;53.582;10.080;2022-07-22T13:29:57;3.17;;;2.57;;
16193;SDS011;8204;53.582;10.080;2022-07-22T13:32:23;6.57;;;3.03;;
16193;SDS011;8204;53.582;10.080;2022-07-22T13:34:50;6.50;;;3.63;;
16193;SDS011;8204;53.582;10.080;2022-07-22T13:37:16;3.67;;;2.43;;
16193;SDS011;8204;53.582;10.080;2022-07-22T13:39:43;5.00;;;2.10;;
16193;SDS011;8204;53.582;10.080;2022-07-22T13:42:11;5.50;;;2.40;;
16193;SDS011;8204;53.582;10.080;2022-07-22T13:44:38;3.50;;;2.50;;
16193;SDS011;8204;53.582;10.080;2022-07-22T13:47:06;5.23;;;2.57;;
16193;SDS011;8204;53.582;10.080;2022-07-22T13:49:33;3.80;;;2.57;;
16193;SDS011;8204;53.582;10.080;2022-07-22T13:51:59;3.40;;;2.57;;
16193;SDS011;8204;53.582;10.080;2022-07-22T13:54:26;5.27;;;3.37;;
16193;SDS011;8204;53.582;10.080;2022-07-22T13:56:53;6.07;;;2.73;;
16193;SDS011;8204;53.582;10.080;2022-07-22T13:59:20;2.97;;;2.40;;
16193;SDS011;8204;53.582;10.080;2022-07-22T14:01:49;4.20;;;2.83;;
16193;SDS011;8204;53.582;10.080;2022-07-22T14:04:17;4.97;;;2.60;;
16193;SDS011;8204;53.582;10.080;2022-07-22T14:06:43;9.03;;;3.73;;
16193;SDS011;8204;53.582;10.080;2022-07-22T14:09:11;3.70;;;2.77;;
16193;SDS011;8204;53.582;10.080;2022-07-22T14:11:37;4.00;;;2.93;;
16193;SDS011;8204;53.582;10.080;2022-07-22T14:14:04;3.63;;;3.10;;
16193;SDS011;8204;53.582;10.080;2022-07-22T14:16:31;5.07;;;3.10;;
16193;SDS011;8204;53.582;10.080;2022-07-22T14:19:01;8.53;;;3.47;;
16193;SDS011;8204;53.582;10.080;2022-07-22T14:21:30;5.40;;;2.63;;
16193;SDS011;8204;53.582;10.080;2022-07-22T14:23:57;3.37;;;2.97;;
16193;SDS011;8204;53.582;10.080;2022-07-22T14:26:23;5.10;;;3.23;;
16193;SDS011;8204;53.582;10.080;2022-07-22T14:28:50;2.87;;;2.53;;
16193;SDS011;8204;53.582;10.080;2022-07-22T14:31:17;4.80;;;2.73;;
16193;SDS011;8204;53.582;10.080;2022-07-22T14:33:44;5.07;;;3.17;;
16193;SDS011;8204;53.582;10.080;2022-07-22T14:36:10;4.70;;;2.90;;
16193;SDS011;8204;53.582;10.080;2022-07-22T14:38:38;5.17;;;2.50;;
16193;SDS011;8204;53.582;10.080;2022-07-22T14:41:05;3.13;;;2.47;;
16193;SDS011;8204;53.582;10.080;2022-07-22T14:43:32;3.87;;;2.97;;
16193;SDS011;8204;53.582;10.080;2022-07-22T14:45:59;8.63;;;3.83;;